sensor_id;sensor_type;location;lat;lon;timestamp;P1;durP1;ratioP1;P2;durP2;ratioP2
49392;SDS011;35268;42.642;23.308;2023-03-01T00:01:36;7.63;;;3.15;;
49392;SDS011;35268;42.642;23.308;2023-03-01T00:04:02;6.68;;;3.65;;
49392;SDS011;35268;42.642;23.308;2023-03-01T00:06:27;5.75;;;3.10;;
49392;SDS011;35268;42.642;23.308;2023-03-01T00:08:53;7.07;;;3.85;;
49392;SDS011;35268;42.642;23.308;2023-03-01T00:11:20;5.70;;;3.40;;
49392;SDS011;35268;42.642;23.308;2023-03-01T00:13:48;5.05;;;3.10;;
49392;SDS011;35268;42.642;23.308;2023-03-01T00:16:20;6.57;;;3.80;;
49392;SDS011;35268;42.642;23.308;2023-03-01T00:18:47;7.18;;;3.70;;
49392;SDS011;35268;42.642;23.308;2023-03-01T00:21:13;6.05;;;3.42;;
49392;SDS011;35268;42.642;23.308;2023-03-01T00:23:39;5.57;;;3.40;;
49392;SDS011;35268;42.642;23.308;2023-03-01T00:26:06;4.75;;;3.15;;
49392;SDS011;35268;42.642;23.308;2023-03-01T00:28:35;4.95;;;3.33;;
49392;SDS011;35268;42.642;23.308;2023-03-01T00:31:05;5.90;;;3.50;;
49392;SDS011;35268;42.642;23.308;2023-03-01T00:33:31;7.15;;;3.80;;
49392;SDS011;35268;42.642;23.308;2023-03-01T00:36:00;5.75;;;3.42;;
49392;SDS011;35268;42.642;23.308;2023-03-01T00:38:26;6.25;;;3.65;;
49392;SDS011;35268;42.642;23.308;2023-03-01T00:40:52;5.22;;;3.65;;
49392;SDS011;35268;42.642;23.308;2023-03-01T00:43:17;4.78;;;3.45;;
49392;SDS011;35268;42.642;23.308;2023-03-01T00:45:43;5.53;;;3.13;;
49392;SDS011;35268;42.642;23.308;2023-03-01T00:48:08;4.40;;;3.15;;
49392;SDS011;35268;42.642;23.308;2023-03-01T00:50:34;7.63;;;2.70;;
49392;SDS011;35268;42.642;23.308;2023-03-01T00:52:59;4.53;;;3.20;;
49392;SDS011;35268;42.642;23.308;2023-03-01T00:55:25;4.63;;;2.92;;
49392;SDS011;35268;42.642;23.308;2023-03-01T00:57:51;4.55;;;2.90;;
49392;SDS011;35268;42.642;23.308;2023-03-01T01:00:16;7.10;;;3.10;;
49392;SDS011;35268;42.642;23.308;2023-03-01T01:02:42;4.03;;;2.25;;
49392;SDS011;35268;42.642;23.308;2023-03-01T01:05:08;4.13;;;2.47;;
49392;SDS011;35268;42.642;23.308;2023-03-01T01:07:33;5.03;;;2.60;;
49392;SDS011;35268;42.642;23.308;2023-03-01T01:09:59;6.28;;;3.13;;
49392;SDS011;35268;42.642;23.308;2023-03-01T01:12:24;7.38;;;2.70;;
49392;SDS011;35268;42.642;23.308;2023-03-01T01:14:50;4.95;;;2.78;;
49392;SDS011;35268;42.642;23.308;2023-03-01T01:17:15;5.45;;;2.17;;
49392;SDS011;35268;42.642;23.308;2023-03-01T01:19:40;2.83;;;1.70;;
49392;SDS011;35268;42.642;23.308;2023-03-01T01:22:06;5.32;;;2.03;;
49392;SDS011;35268;42.642;23.308;2023-03-01T01:24:31;3.40;;;1.88;;
49392;SDS011;35268;42.642;23.308;2023-03-01T01:26:57;2.97;;;1.85;;
49392;SDS011;35268;42.642;23.308;2023-03-01T01:29:22;2.80;;;1.77;;
49392;SDS011;35268;42.642;23.308;2023-03-01T01:31:48;3.05;;;1.75;;
49392;SDS011;35268;42.642;23.308;2023-03-01T01:34:17;3.35;;;1.98;;
49392;SDS011;35268;42.642;23.308;2023-03-01T01:36:47;3.53;;;2.05;;
49392;SDS011;35268;42.642;23.308;2023-03-01T01:39:14;5.05;;;2.40;;
49392;SDS011;35268;42.642;23.308;2023-03-01T01:41:40;3.63;;;2.17;;
49392;SDS011;35268;42.642;23.308;2023-03-01T01:46:53;3.80;;;1.77;;
49392;SDS011;35268;42.642;23.308;2023-03-01T01:52:11;2.45;;;1.67;;
49392;SDS011;35268;42.642;23.308;2023-03-01T01:55:24;3.22;;;1.88;;
49392;SDS011;35268;42.642;23.308;2023-03-01T01:57:37;2.40;;;1.60;;
49392;SDS011;35268;42.642;23.308;2023-03-01T02:00:11;2.67;;;1.52;;
49392;SDS011;35268;42.642;23.308;2023-03-01T02:02:39;2.50;;;1.65;;
49392;SDS011;35268;42.642;23.308;2023-03-01T02:07:41;5.30;;;1.58;;
49392;SDS011;35268;42.642;23.308;2023-03-01T02:10:08;3.38;;;1.35;;
49392;SDS011;35268;42.642;23.308;2023-03-01T02:12:34;2.80;;;1.33;;
49392;SDS011;35268;42.642;23.308;2023-03-01T02:15:01;2.17;;;1.30;;
49392;SDS011;35268;42.642;23.308;2023-03-01T02:17:27;1.65;;;1.20;;
49392;SDS011;35268;42.642;23.308;2023-03-01T02:19:59;1.92;;;1.13;;
49392;SDS011;35268;42.642;23.308;2023-03-01T02:22:28;2.88;;;1.60;;
49392;SDS011;35268;42.642;23.308;2023-03-01T02:27:29;2.88;;;1.48;;
49392;SDS011;35268;42.642;23.308;2023-03-01T02:30:02;2.08;;;1.42;;
49392;SDS011;35268;42.642;23.308;2023-03-01T02:32:28;2.20;;;1.20;;
49392;SDS011;35268;42.642;23.308;2023-03-01T02:34:54;2.40;;;1.50;;
49392;SDS011;35268;42.642;23.308;2023-03-01T02:37:20;2.35;;;1.48;;
49392;SDS011;35268;42.642;23.308;2023-03-01T02:39:49;2.20;;;1.40;;
49392;SDS011;35268;42.642;23.308;2023-03-01T02:42:23;2.67;;;1.73;;
49392;SDS011;35268;42.642;23.308;2023-03-01T02:44:51;2.55;;;1.60;;
49392;SDS011;35268;42.642;23.308;2023-03-01T02:47:17;2.97;;;1.77;;
49392;SDS011;35268;42.642;23.308;2023-03-01T02:49:42;2.95;;;1.80;;
49392;SDS011;35268;42.642;23.308;2023-03-01T02:52:12;2.53;;;1.60;;
49392;SDS011;35268;42.642;23.308;2023-03-01T02:55:06;4.05;;;2.10;;
49392;SDS011;35268;42.642;23.308;2023-03-01T02:57:36;2.47;;;1.58;;
49392;SDS011;35268;42.642;23.308;2023-03-01T03:00:05;3.13;;;2.28;;
49392;SDS011;35268;42.642;23.308;2023-03-01T03:02:33;4.60;;;2.15;;
49392;SDS011;35268;42.642;23.308;2023-03-01T03:05:07;3.35;;;2.30;;
49392;SDS011;35268;42.642;23.308;2023-03-01T03:07:35;3.75;;;2.30;;
49392;SDS011;35268;42.642;23.308;2023-03-01T03:10:03;4.40;;;2.63;;
49392;SDS011;35268;42.642;23.308;2023-03-01T03:12:30;3.88;;;3.00;;
49392;SDS011;35268;42.642;23.308;2023-03-01T03:14:55;4.18;;;2.78;;
49392;SDS011;35268;42.642;23.308;2023-03-01T03:17:20;4.80;;;2.95;;
49392;SDS011;35268;42.642;23.308;2023-03-01T03:19:46;4.25;;;3.28;;
49392;SDS011;35268;42.642;23.308;2023-03-01T03:22:12;5.95;;;3.45;;
49392;SDS011;35268;42.642;23.308;2023-03-01T03:24:37;4.18;;;3.10;;
49392;SDS011;35268;42.642;23.308;2023-03-01T03:27:06;5.63;;;3.50;;
49392;SDS011;35268;42.642;23.308;2023-03-01T03:29:32;4.45;;;3.10;;
49392;SDS011;35268;42.642;23.308;2023-03-01T03:31:58;4.85;;;2.95;;
49392;SDS011;35268;42.642;23.308;2023-03-01T03:34:23;5.22;;;3.35;;
49392;SDS011;35268;42.642;23.308;2023-03-01T03:36:52;4.75;;;2.92;;
49392;SDS011;35268;42.642;23.308;2023-03-01T03:39:24;5.03;;;3.40;;
49392;SDS011;35268;42.642;23.308;2023-03-01T03:41:50;7.88;;;3.63;;
49392;SDS011;35268;42.642;23.308;2023-03-01T03:44:16;5.47;;;3.30;;
49392;SDS011;35268;42.642;23.308;2023-03-01T03:46:41;5.93;;;3.67;;
49392;SDS011;35268;42.642;23.308;2023-03-01T03:49:07;5.90;;;3.42;;
49392;SDS011;35268;42.642;23.308;2023-03-01T03:51:32;10.18;;;3.35;;
49392;SDS011;35268;42.642;23.308;2023-03-01T03:53:57;6.15;;;3.33;;
49392;SDS011;35268;42.642;23.308;2023-03-01T03:59:09;5.97;;;3.08;;
49392;SDS011;35268;42.642;23.308;2023-03-01T04:04:46;4.25;;;2.63;;
49392;SDS011;35268;42.642;23.308;2023-03-01T04:07:15;5.55;;;2.65;;
49392;SDS011;35268;42.642;23.308;2023-03-01T04:09:42;4.93;;;3.17;;
49392;SDS011;35268;42.642;23.308;2023-03-01T04:12:08;6.85;;;2.20;;
49392;SDS011;35268;42.642;23.308;2023-03-01T04:14:34;3.40;;;2.00;;
49392;SDS011;35268;42.642;23.308;2023-03-01T04:16:59;4.22;;;2.25;;
49392;SDS011;35268;42.642;23.308;2023-03-01T04:19:26;4.65;;;2.55;;
49392;SDS011;35268;42.642;23.308;2023-03-01T04:21:52;9.43;;;2.85;;
49392;SDS011;35268;42.642;23.308;2023-03-01T04:24:17;5.25;;;2.83;;
49392;SDS011;35268;42.642;23.308;2023-03-01T04:26:43;5.75;;;2.85;;
49392;SDS011;35268;42.642;23.308;2023-03-01T04:29:08;4.15;;;2.63;;
49392;SDS011;35268;42.642;23.308;2023-03-01T04:31:33;6.65;;;3.47;;
49392;SDS011;35268;42.642;23.308;2023-03-01T04:33:59;4.05;;;2.92;;
49392;SDS011;35268;42.642;23.308;2023-03-01T04:36:25;5.75;;;3.50;;
49392;SDS011;35268;42.642;23.308;2023-03-01T04:38:53;6.05;;;2.70;;
49392;SDS011;35268;42.642;23.308;2023-03-01T04:41:20;4.70;;;2.90;;
49392;SDS011;35268;42.642;23.308;2023-03-01T04:43:47;7.65;;;3.40;;
49392;SDS011;35268;42.642;23.308;2023-03-01T04:46:14;5.90;;;3.15;;
49392;SDS011;35268;42.642;23.308;2023-03-01T04:48:42;4.97;;;2.97;;
49392;SDS011;35268;42.642;23.308;2023-03-01T04:51:09;5.70;;;3.45;;
49392;SDS011;35268;42.642;23.308;2023-03-01T04:53:38;7.07;;;3.72;;
49392;SDS011;35268;42.642;23.308;2023-03-01T04:56:05;5.82;;;3.92;;
49392;SDS011;35268;42.642;23.308;2023-03-01T04:58:31;6.32;;;3.67;;
49392;SDS011;35268;42.642;23.308;2023-03-01T05:00:56;6.13;;;4.03;;
49392;SDS011;35268;42.642;23.308;2023-03-01T05:03:22;6.75;;;3.78;;
49392;SDS011;35268;42.642;23.308;2023-03-01T05:05:49;6.30;;;3.67;;
49392;SDS011;35268;42.642;23.308;2023-03-01T05:08:16;6.35;;;3.85;;
49392;SDS011;35268;42.642;23.308;2023-03-01T05:10:47;6.40;;;4.07;;
49392;SDS011;35268;42.642;23.308;2023-03-01T05:13:14;9.60;;;4.22;;
49392;SDS011;35268;42.642;23.308;2023-03-01T05:15:45;4.70;;;3.13;;
49392;SDS011;35268;42.642;23.308;2023-03-01T05:18:21;6.70;;;2.53;;
49392;SDS011;35268;42.642;23.308;2023-03-01T05:20:51;8.40;;;3.13;;
49392;SDS011;35268;42.642;23.308;2023-03-01T05:23:17;5.82;;;3.40;;
49392;SDS011;35268;42.642;23.308;2023-03-01T05:25:43;6.57;;;3.20;;
49392;SDS011;35268;42.642;23.308;2023-03-01T05:28:12;4.30;;;2.28;;
49392;SDS011;35268;42.642;23.308;2023-03-01T05:30:38;6.57;;;2.60;;
49392;SDS011;35268;42.642;23.308;2023-03-01T05:33:04;13.38;;;4.10;;
49392;SDS011;35268;42.642;23.308;2023-03-01T05:35:32;7.40;;;3.25;;
49392;SDS011;35268;42.642;23.308;2023-03-01T05:37:57;7.38;;;3.10;;
49392;SDS011;35268;42.642;23.308;2023-03-01T05:40:23;6.13;;;3.08;;
49392;SDS011;35268;42.642;23.308;2023-03-01T05:42:50;8.98;;;4.00;;
49392;SDS011;35268;42.642;23.308;2023-03-01T05:45:20;8.57;;;3.08;;
49392;SDS011;35268;42.642;23.308;2023-03-01T05:47:47;9.05;;;2.60;;
49392;SDS011;35268;42.642;23.308;2023-03-01T05:50:17;5.88;;;2.80;;
49392;SDS011;35268;42.642;23.308;2023-03-01T05:52:46;5.77;;;2.30;;
49392;SDS011;35268;42.642;23.308;2023-03-01T05:55:13;5.85;;;3.67;;
49392;SDS011;35268;42.642;23.308;2023-03-01T05:57:39;7.50;;;2.95;;
49392;SDS011;35268;42.642;23.308;2023-03-01T06:00:07;9.27;;;3.25;;
49392;SDS011;35268;42.642;23.308;2023-03-01T06:02:33;5.93;;;3.08;;
49392;SDS011;35268;42.642;23.308;2023-03-01T06:04:59;4.80;;;2.67;;
49392;SDS011;35268;42.642;23.308;2023-03-01T06:07:24;6.97;;;2.22;;
49392;SDS011;35268;42.642;23.308;2023-03-01T06:09:50;5.20;;;2.78;;
49392;SDS011;35268;42.642;23.308;2023-03-01T06:12:15;5.38;;;2.13;;
49392;SDS011;35268;42.642;23.308;2023-03-01T06:14:40;5.60;;;2.15;;
49392;SDS011;35268;42.642;23.308;2023-03-01T06:17:06;4.45;;;2.15;;
49392;SDS011;35268;42.642;23.308;2023-03-01T06:19:31;12.00;;;1.85;;
49392;SDS011;35268;42.642;23.308;2023-03-01T06:21:57;12.93;;;2.30;;
49392;SDS011;35268;42.642;23.308;2023-03-01T06:24:22;3.40;;;2.20;;
49392;SDS011;35268;42.642;23.308;2023-03-01T06:26:48;10.25;;;2.55;;
49392;SDS011;35268;42.642;23.308;2023-03-01T06:29:13;6.13;;;2.35;;
49392;SDS011;35268;42.642;23.308;2023-03-01T06:31:39;3.92;;;2.60;;
49392;SDS011;35268;42.642;23.308;2023-03-01T06:34:05;4.45;;;1.90;;
49392;SDS011;35268;42.642;23.308;2023-03-01T06:36:30;5.30;;;1.92;;
49392;SDS011;35268;42.642;23.308;2023-03-01T06:38:56;4.32;;;1.80;;
49392;SDS011;35268;42.642;23.308;2023-03-01T06:41:21;6.45;;;1.75;;
49392;SDS011;35268;42.642;23.308;2023-03-01T06:43:47;9.35;;;2.58;;
49392;SDS011;35268;42.642;23.308;2023-03-01T06:46:12;8.98;;;2.10;;
49392;SDS011;35268;42.642;23.308;2023-03-01T06:48:37;3.17;;;1.92;;
49392;SDS011;35268;42.642;23.308;2023-03-01T06:51:03;7.07;;;1.88;;
49392;SDS011;35268;42.642;23.308;2023-03-01T06:53:29;9.95;;;1.90;;
49392;SDS011;35268;42.642;23.308;2023-03-01T06:55:55;4.85;;;1.40;;
49392;SDS011;35268;42.642;23.308;2023-03-01T06:58:21;2.42;;;1.27;;
49392;SDS011;35268;42.642;23.308;2023-03-01T07:00:47;3.75;;;1.60;;
49392;SDS011;35268;42.642;23.308;2023-03-01T07:03:12;11.70;;;2.30;;
49392;SDS011;35268;42.642;23.308;2023-03-01T07:05:38;12.23;;;3.08;;
49392;SDS011;35268;42.642;23.308;2023-03-01T07:08:04;7.60;;;2.53;;
49392;SDS011;35268;42.642;23.308;2023-03-01T07:10:29;3.72;;;1.60;;
49392;SDS011;35268;42.642;23.308;2023-03-01T07:12:55;13.73;;;1.50;;
49392;SDS011;35268;42.642;23.308;2023-03-01T07:15:22;3.97;;;1.63;;
49392;SDS011;35268;42.642;23.308;2023-03-01T07:17:47;3.25;;;1.40;;
49392;SDS011;35268;42.642;23.308;2023-03-01T07:20:15;9.25;;;1.83;;
49392;SDS011;35268;42.642;23.308;2023-03-01T07:22:42;12.05;;;2.00;;
49392;SDS011;35268;42.642;23.308;2023-03-01T07:25:08;13.82;;;1.80;;
49392;SDS011;35268;42.642;23.308;2023-03-01T07:27:34;9.73;;;1.88;;
49392;SDS011;35268;42.642;23.308;2023-03-01T07:30:00;3.22;;;1.40;;
49392;SDS011;35268;42.642;23.308;2023-03-01T07:32:25;8.48;;;1.73;;
49392;SDS011;35268;42.642;23.308;2023-03-01T07:34:51;12.13;;;2.15;;
49392;SDS011;35268;42.642;23.308;2023-03-01T07:37:16;6.22;;;2.15;;
49392;SDS011;35268;42.642;23.308;2023-03-01T07:39:42;11.10;;;2.42;;
49392;SDS011;35268;42.642;23.308;2023-03-01T07:42:08;7.32;;;2.20;;
49392;SDS011;35268;42.642;23.308;2023-03-01T07:44:33;5.70;;;2.10;;
49392;SDS011;35268;42.642;23.308;2023-03-01T07:47:02;5.18;;;1.75;;
49392;SDS011;35268;42.642;23.308;2023-03-01T07:49:29;7.72;;;3.10;;
49392;SDS011;35268;42.642;23.308;2023-03-01T07:51:54;9.32;;;2.40;;
49392;SDS011;35268;42.642;23.308;2023-03-01T07:54:20;2.78;;;1.63;;
49392;SDS011;35268;42.642;23.308;2023-03-01T07:56:46;4.72;;;1.90;;
49392;SDS011;35268;42.642;23.308;2023-03-01T07:59:11;6.72;;;2.30;;
49392;SDS011;35268;42.642;23.308;2023-03-01T08:01:37;5.65;;;2.10;;
49392;SDS011;35268;42.642;23.308;2023-03-01T08:04:02;4.63;;;1.50;;
49392;SDS011;35268;42.642;23.308;2023-03-01T08:06:32;3.92;;;1.70;;
49392;SDS011;35268;42.642;23.308;2023-03-01T08:08:59;6.40;;;2.47;;
49392;SDS011;35268;42.642;23.308;2023-03-01T08:11:24;3.25;;;1.90;;
49392;SDS011;35268;42.642;23.308;2023-03-01T08:13:50;6.35;;;2.58;;
49392;SDS011;35268;42.642;23.308;2023-03-01T08:16:16;11.02;;;2.53;;
49392;SDS011;35268;42.642;23.308;2023-03-01T08:18:42;4.68;;;2.13;;
49392;SDS011;35268;42.642;23.308;2023-03-01T08:21:09;5.07;;;2.28;;
49392;SDS011;35268;42.642;23.308;2023-03-01T08:23:36;6.03;;;2.50;;
49392;SDS011;35268;42.642;23.308;2023-03-01T08:26:03;6.35;;;2.80;;
49392;SDS011;35268;42.642;23.308;2023-03-01T08:28:47;3.50;;;2.13;;
49392;SDS011;35268;42.642;23.308;2023-03-01T08:31:15;6.70;;;2.03;;
49392;SDS011;35268;42.642;23.308;2023-03-01T08:33:47;8.18;;;2.08;;
49392;SDS011;35268;42.642;23.308;2023-03-01T08:36:16;8.40;;;3.25;;
49392;SDS011;35268;42.642;23.308;2023-03-01T08:38:42;4.35;;;2.60;;
49392;SDS011;35268;42.642;23.308;2023-03-01T08:41:07;6.15;;;3.03;;
49392;SDS011;35268;42.642;23.308;2023-03-01T08:43:33;6.10;;;2.78;;
49392;SDS011;35268;42.642;23.308;2023-03-01T08:45:58;5.03;;;2.80;;
49392;SDS011;35268;42.642;23.308;2023-03-01T08:48:24;6.13;;;3.22;;
49392;SDS011;35268;42.642;23.308;2023-03-01T08:50:50;14.68;;;3.08;;
49392;SDS011;35268;42.642;23.308;2023-03-01T08:53:15;4.60;;;2.00;;
49392;SDS011;35268;42.642;23.308;2023-03-01T08:55:41;7.13;;;2.53;;
49392;SDS011;35268;42.642;23.308;2023-03-01T08:58:06;10.70;;;2.35;;
49392;SDS011;35268;42.642;23.308;2023-03-01T09:00:32;3.78;;;2.00;;
49392;SDS011;35268;42.642;23.308;2023-03-01T09:03:00;2.50;;;1.52;;
49392;SDS011;35268;42.642;23.308;2023-03-01T09:05:25;4.32;;;2.00;;
49392;SDS011;35268;42.642;23.308;2023-03-01T09:07:51;5.03;;;2.03;;
49392;SDS011;35268;42.642;23.308;2023-03-01T09:10:16;7.53;;;2.10;;
49392;SDS011;35268;42.642;23.308;2023-03-01T09:12:42;6.38;;;1.73;;
49392;SDS011;35268;42.642;23.308;2023-03-01T09:15:08;4.22;;;2.30;;
49392;SDS011;35268;42.642;23.308;2023-03-01T09:17:33;9.13;;;2.40;;
49392;SDS011;35268;42.642;23.308;2023-03-01T09:19:59;5.15;;;2.72;;
49392;SDS011;35268;42.642;23.308;2023-03-01T09:22:25;6.20;;;2.42;;
49392;SDS011;35268;42.642;23.308;2023-03-01T09:24:50;8.68;;;3.00;;
49392;SDS011;35268;42.642;23.308;2023-03-01T09:27:19;6.35;;;2.00;;
49392;SDS011;35268;42.642;23.308;2023-03-01T09:29:44;13.35;;;2.53;;
49392;SDS011;35268;42.642;23.308;2023-03-01T09:32:10;4.28;;;1.83;;
49392;SDS011;35268;42.642;23.308;2023-03-01T09:34:36;6.35;;;1.88;;
49392;SDS011;35268;42.642;23.308;2023-03-01T09:37:21;17.80;;;2.35;;
49392;SDS011;35268;42.642;23.308;2023-03-01T09:39:46;5.57;;;2.10;;
49392;SDS011;35268;42.642;23.308;2023-03-01T09:42:12;8.25;;;2.58;;
49392;SDS011;35268;42.642;23.308;2023-03-01T09:44:49;8.75;;;3.00;;
49392;SDS011;35268;42.642;23.308;2023-03-01T09:47:21;3.60;;;2.22;;
49392;SDS011;35268;42.642;23.308;2023-03-01T09:50:06;8.50;;;2.70;;
49392;SDS011;35268;42.642;23.308;2023-03-01T09:55:29;6.13;;;2.65;;
49392;SDS011;35268;42.642;23.308;2023-03-01T10:00:43;4.20;;;2.10;;
49392;SDS011;35268;42.642;23.308;2023-03-01T10:03:12;10.07;;;2.47;;
49392;SDS011;35268;42.642;23.308;2023-03-01T10:11:19;6.80;;;2.60;;
49392;SDS011;35268;42.642;23.308;2023-03-01T10:16:33;8.00;;;3.28;;
49392;SDS011;35268;42.642;23.308;2023-03-01T10:19:12;8.75;;;3.40;;
49392;SDS011;35268;42.642;23.308;2023-03-01T10:21:43;6.68;;;2.50;;
49392;SDS011;35268;42.642;23.308;2023-03-01T10:24:14;12.00;;;2.38;;
49392;SDS011;35268;42.642;23.308;2023-03-01T10:26:47;4.78;;;2.75;;
49392;SDS011;35268;42.642;23.308;2023-03-01T10:29:35;6.13;;;3.30;;
49392;SDS011;35268;42.642;23.308;2023-03-01T10:32:08;7.82;;;3.28;;
49392;SDS011;35268;42.642;23.308;2023-03-01T10:34:36;9.70;;;3.03;;
49392;SDS011;35268;42.642;23.308;2023-03-01T10:37:09;8.52;;;3.15;;
49392;SDS011;35268;42.642;23.308;2023-03-01T10:39:57;7.40;;;3.15;;
49392;SDS011;35268;42.642;23.308;2023-03-01T10:42:26;8.30;;;4.15;;
49392;SDS011;35268;42.642;23.308;2023-03-01T10:44:57;5.32;;;2.92;;
49392;SDS011;35268;42.642;23.308;2023-03-01T10:47:25;8.68;;;3.10;;
49392;SDS011;35268;42.642;23.308;2023-03-01T10:49:58;7.07;;;3.75;;
49392;SDS011;35268;42.642;23.308;2023-03-01T10:52:28;14.27;;;2.63;;
49392;SDS011;35268;42.642;23.308;2023-03-01T10:54:58;4.80;;;2.60;;
49392;SDS011;35268;42.642;23.308;2023-03-01T10:57:31;9.55;;;4.75;;
49392;SDS011;35268;42.642;23.308;2023-03-01T11:03:12;12.00;;;3.05;;
49392;SDS011;35268;42.642;23.308;2023-03-01T11:08:33;5.03;;;2.30;;
49392;SDS011;35268;42.642;23.308;2023-03-01T11:16:17;6.82;;;3.30;;
49392;SDS011;35268;42.642;23.308;2023-03-01T11:19:24;5.35;;;2.97;;
49392;SDS011;35268;42.642;23.308;2023-03-01T11:24:13;6.93;;;3.42;;
49392;SDS011;35268;42.642;23.308;2023-03-01T11:26:42;11.40;;;2.85;;
49392;SDS011;35268;42.642;23.308;2023-03-01T11:29:24;8.18;;;2.60;;
49392;SDS011;35268;42.642;23.308;2023-03-01T11:32:08;9.93;;;3.90;;
49392;SDS011;35268;42.642;23.308;2023-03-01T11:37:15;7.50;;;3.10;;
49392;SDS011;35268;42.642;23.308;2023-03-01T11:39:54;7.50;;;3.40;;
49392;SDS011;35268;42.642;23.308;2023-03-01T11:42:46;10.07;;;4.28;;
49392;SDS011;35268;42.642;23.308;2023-03-01T11:45:25;12.63;;;2.70;;
49392;SDS011;35268;42.642;23.308;2023-03-01T11:48:35;5.25;;;2.78;;
49392;SDS011;35268;42.642;23.308;2023-03-01T11:51:05;4.47;;;3.25;;
49392;SDS011;35268;42.642;23.308;2023-03-01T11:56:41;5.43;;;2.58;;
49392;SDS011;35268;42.642;23.308;2023-03-01T12:04:44;9.88;;;3.20;;
49392;SDS011;35268;42.642;23.308;2023-03-01T12:10:27;4.95;;;2.85;;
49392;SDS011;35268;42.642;23.308;2023-03-01T12:15:39;4.38;;;2.60;;
49392;SDS011;35268;42.642;23.308;2023-03-01T12:19:26;4.00;;;2.45;;
49392;SDS011;35268;42.642;23.308;2023-03-01T12:25:16;12.48;;;3.85;;
49392;SDS011;35268;42.642;23.308;2023-03-01T12:30:39;8.35;;;2.88;;
49392;SDS011;35268;42.642;23.308;2023-03-01T12:35:59;6.72;;;3.42;;
49392;SDS011;35268;42.642;23.308;2023-03-01T12:50:01;7.13;;;3.65;;
49392;SDS011;35268;42.642;23.308;2023-03-01T13:00:40;4.40;;;2.65;;
49392;SDS011;35268;42.642;23.308;2023-03-01T13:06:08;4.65;;;2.22;;
49392;SDS011;35268;42.642;23.308;2023-03-01T13:08:47;4.32;;;2.10;;
49392;SDS011;35268;42.642;23.308;2023-03-01T13:11:21;4.78;;;2.78;;
49392;SDS011;35268;42.642;23.308;2023-03-01T13:13:48;8.15;;;2.53;;
49392;SDS011;35268;42.642;23.308;2023-03-01T13:19:13;7.32;;;2.90;;
49392;SDS011;35268;42.642;23.308;2023-03-01T13:21:41;5.20;;;2.80;;
49392;SDS011;35268;42.642;23.308;2023-03-01T13:27:49;7.55;;;2.92;;
49392;SDS011;35268;42.642;23.308;2023-03-01T13:29:53;9.82;;;3.70;;
49392;SDS011;35268;42.642;23.308;2023-03-01T13:34:57;5.97;;;3.10;;
49392;SDS011;35268;42.642;23.308;2023-03-01T13:37:25;7.55;;;3.00;;
49392;SDS011;35268;42.642;23.308;2023-03-01T13:42:30;4.15;;;2.88;;
49392;SDS011;35268;42.642;23.308;2023-03-01T13:44:58;4.68;;;2.80;;
49392;SDS011;35268;42.642;23.308;2023-03-01T13:47:24;10.70;;;3.25;;
49392;SDS011;35268;42.642;23.308;2023-03-01T13:49:56;12.05;;;2.90;;
49392;SDS011;35268;42.642;23.308;2023-03-01T14:00:44;6.38;;;3.20;;
49392;SDS011;35268;42.642;23.308;2023-03-01T14:03:11;6.90;;;3.35;;
49392;SDS011;35268;42.642;23.308;2023-03-01T14:05:40;15.73;;;2.97;;
49392;SDS011;35268;42.642;23.308;2023-03-01T14:08:21;16.23;;;3.45;;
49392;SDS011;35268;42.642;23.308;2023-03-01T14:10:58;12.73;;;3.20;;
49392;SDS011;35268;42.642;23.308;2023-03-01T14:16:16;12.15;;;3.28;;
49392;SDS011;35268;42.642;23.308;2023-03-01T14:18:47;13.15;;;3.40;;
49392;SDS011;35268;42.642;23.308;2023-03-01T14:21:23;11.40;;;3.67;;
49392;SDS011;35268;42.642;23.308;2023-03-01T14:23:50;8.45;;;3.70;;
49392;SDS011;35268;42.642;23.308;2023-03-01T14:26:19;9.45;;;3.28;;
49392;SDS011;35268;42.642;23.308;2023-03-01T14:34:05;4.50;;;2.63;;
49392;SDS011;35268;42.642;23.308;2023-03-01T14:36:32;7.88;;;3.10;;
49392;SDS011;35268;42.642;23.308;2023-03-01T14:38:59;3.83;;;2.25;;
49392;SDS011;35268;42.642;23.308;2023-03-01T14:41:30;7.15;;;3.15;;
49392;SDS011;35268;42.642;23.308;2023-03-01T14:44:12;6.93;;;3.13;;
49392;SDS011;35268;42.642;23.308;2023-03-01T14:46:46;6.65;;;3.03;;
49392;SDS011;35268;42.642;23.308;2023-03-01T14:49:24;7.15;;;3.33;;
49392;SDS011;35268;42.642;23.308;2023-03-01T14:54:42;5.20;;;3.05;;
49392;SDS011;35268;42.642;23.308;2023-03-01T14:57:15;5.32;;;3.03;;
49392;SDS011;35268;42.642;23.308;2023-03-01T14:59:47;6.32;;;2.20;;
49392;SDS011;35268;42.642;23.308;2023-03-01T15:02:19;5.75;;;2.83;;
49392;SDS011;35268;42.642;23.308;2023-03-01T15:07:15;8.18;;;3.35;;
49392;SDS011;35268;42.642;23.308;2023-03-01T15:09:41;9.85;;;3.25;;
49392;SDS011;35268;42.642;23.308;2023-03-01T15:14:57;9.55;;;3.45;;
49392;SDS011;35268;42.642;23.308;2023-03-01T15:17:30;9.45;;;3.50;;
49392;SDS011;35268;42.642;23.308;2023-03-01T15:19:59;5.03;;;3.00;;
49392;SDS011;35268;42.642;23.308;2023-03-01T15:22:27;8.63;;;3.72;;
49392;SDS011;35268;42.642;23.308;2023-03-01T15:24:53;17.33;;;4.30;;
49392;SDS011;35268;42.642;23.308;2023-03-01T15:27:21;8.60;;;3.90;;
49392;SDS011;35268;42.642;23.308;2023-03-01T15:29:49;12.32;;;4.80;;
49392;SDS011;35268;42.642;23.308;2023-03-01T15:32:34;11.13;;;4.28;;
49392;SDS011;35268;42.642;23.308;2023-03-01T15:38:22;14.35;;;8.35;;
49392;SDS011;35268;42.642;23.308;2023-03-01T15:40:53;17.92;;;5.18;;
49392;SDS011;35268;42.642;23.308;2023-03-01T15:49:24;7.88;;;3.60;;
49392;SDS011;35268;42.642;23.308;2023-03-01T15:52:11;8.55;;;3.40;;
49392;SDS011;35268;42.642;23.308;2023-03-01T15:54:53;9.15;;;4.55;;
49392;SDS011;35268;42.642;23.308;2023-03-01T15:57:22;7.75;;;4.22;;
49392;SDS011;35268;42.642;23.308;2023-03-01T15:59:48;10.13;;;4.28;;
49392;SDS011;35268;42.642;23.308;2023-03-01T16:02:17;9.88;;;4.07;;
49392;SDS011;35268;42.642;23.308;2023-03-01T16:04:42;6.80;;;3.95;;
49392;SDS011;35268;42.642;23.308;2023-03-01T16:07:08;11.75;;;4.25;;
49392;SDS011;35268;42.642;23.308;2023-03-01T16:09:34;11.82;;;4.47;;
49392;SDS011;35268;42.642;23.308;2023-03-01T16:12:00;9.20;;;4.70;;
49392;SDS011;35268;42.642;23.308;2023-03-01T16:14:26;10.23;;;4.38;;
49392;SDS011;35268;42.642;23.308;2023-03-01T16:16:52;12.90;;;4.72;;
49392;SDS011;35268;42.642;23.308;2023-03-01T16:19:17;8.10;;;4.18;;
49392;SDS011;35268;42.642;23.308;2023-03-01T16:21:43;17.50;;;4.00;;
49392;SDS011;35268;42.642;23.308;2023-03-01T16:24:11;10.60;;;4.20;;
49392;SDS011;35268;42.642;23.308;2023-03-01T16:26:37;11.30;;;3.75;;
49392;SDS011;35268;42.642;23.308;2023-03-01T16:29:03;13.25;;;3.70;;
49392;SDS011;35268;42.642;23.308;2023-03-01T16:31:29;9.23;;;3.95;;
49392;SDS011;35268;42.642;23.308;2023-03-01T16:33:56;9.80;;;3.47;;
49392;SDS011;35268;42.642;23.308;2023-03-01T16:36:23;10.75;;;4.05;;
49392;SDS011;35268;42.642;23.308;2023-03-01T16:38:50;14.02;;;3.70;;
49392;SDS011;35268;42.642;23.308;2023-03-01T16:41:17;8.52;;;3.75;;
49392;SDS011;35268;42.642;23.308;2023-03-01T16:43:45;8.07;;;3.53;;
49392;SDS011;35268;42.642;23.308;2023-03-01T16:46:18;14.40;;;4.22;;
49392;SDS011;35268;42.642;23.308;2023-03-01T16:48:45;10.63;;;4.18;;
49392;SDS011;35268;42.642;23.308;2023-03-01T16:51:11;9.55;;;3.40;;
49392;SDS011;35268;42.642;23.308;2023-03-01T16:53:37;11.20;;;5.68;;
49392;SDS011;35268;42.642;23.308;2023-03-01T16:56:04;9.73;;;4.78;;
49392;SDS011;35268;42.642;23.308;2023-03-01T16:58:35;10.52;;;5.05;;
49392;SDS011;35268;42.642;23.308;2023-03-01T17:01:06;9.80;;;4.35;;